Bei Facebook empfehlenBei Twitter postenGoogle plusPinterest

Das Wetter im Erzgebirge am 24.07.2016

Wetter und Klima am 24.07.2016 Holzhau im Erzgebirge (630m ü.NN)
Letzte gemessene Temperatur und Uhrzeit der Messung23:45:00 Uhr15.30 °C
Temperatur (Maximum / Höchstwert) und Uhrzeit der Messung18:30:00 Uhr24.60 °C
Temperatur (Minimum / Tiefstwert) und Uhrzeit der Messung23:45:0015.30 °C
Errechneter Absolutwert der Temperaturschwankungen zwischen Tmin und Tmax des Tages9.30 K
Errechnete Tagesmitteltemperatur19.27083 °C
Gesamt - Niederschlag des Tages (in flüssiger Form)0.00 Liter / m²
Luftdruck (Maximum / Höchstwert) und Zeitpunkt der Messung14:15:00 Uhr1018.30 hPa
Luftdruck (Minimum / Tiefstwert) und Zeitpunkt der Messung00:30:00 Uhr1016.10 hPa
Errechneter Absolutwert der Luftdruckschwankungen des Tages2.20 hPa
Höchste gemessene Windgeschwindigkeit und Uhrzeit der Messung23:45:00 Uhr0.00 km/h
Errechnete Windhäufigkeit in Relation zu den Messwerten des Tages0.00000 %
Niedrigste Windkühle (Windchill) und Zeitpunkt der Messung23:45:00 Uhr15.30 °C
Taupunkt (Maximum / Höchstwert) und Uhrzeit der Messung11:45:00 Uhr21.00 °C
Taupunkt (Minimum / Tiefstwert) und Uhrzeit der Messung23:45:0014.00 °C
Anzahl der automatisch eingelesenen Messwerte 96

Detaillierte Wetter- und Klima- Messwerte für den 24.07.2016 in Holzhau im Erzgebirge (630m ü.NN)
ZeitTemperaturLuftdruckRel. LuftfeuchteWindWindrichtungWindchillTaupunktNiederschlag l/m²
23:45:0015.30 °C1017.60 hPa92.00 %14.00 °C 
23:30:0015.50 °C1017.70 hPa92.00 %14.20 °C 
23:15:0015.90 °C1017.80 hPa92.00 %14.60 °C 
23:00:0015.90 °C1018.00 hPa91.00 %14.40 °C 
22:45:0016.10 °C1018.00 hPa91.00 %14.60 °C 
22:30:0016.10 °C1017.90 hPa90.00 %14.50 °C 
22:15:0016.20 °C1018.00 hPa89.00 %14.40 °C 
22:00:0016.40 °C1018.00 hPa88.00 %14.40 °C 
21:45:0016.80 °C1018.00 hPa87.00 %14.60 °C 
21:30:0017.40 °C1018.00 hPa86.00 %15.00 °C 
21:15:0018.10 °C1017.90 hPa84.00 %15.40 °C 
21:00:0018.90 °C1017.70 hPa83.00 %15.90 °C 
20:45:0019.60 °C1017.50 hPa82.00 %16.40 °C 
20:30:0020.40 °C1017.50 hPa80.00 %16.80 °C 
20:15:0021.20 °C1017.60 hPa78.00 %17.20 °C 
20:00:0021.90 °C1017.70 hPa76.00 %17.50 °C 
19:45:0022.70 °C1017.60 hPa77.00 %18.50 °C 
19:30:0023.20 °C1017.60 hPa76.00 %18.70 °C 
19:15:0023.60 °C1017.60 hPa73.00 %18.50 °C 
19:00:0024.20 °C1017.70 hPa71.00 %18.60 °C 
18:45:0024.30 °C1017.60 hPa71.00 %18.70 °C 
18:30:0024.60 °C1017.60 hPa72.00 %19.20 °C 
18:15:0024.30 °C1017.60 hPa75.00 %19.60 °C 
18:00:0023.90 °C1017.80 hPa75.00 %19.20 °C 
17:45:0023.80 °C1017.80 hPa77.00 %19.50 °C 
17:30:0023.30 °C1017.90 hPa77.00 %19.00 °C 
17:15:0023.80 °C1017.90 hPa75.00 %19.10 °C 
17:00:0024.30 °C1018.00 hPa76.00 %19.80 °C 
16:45:0023.60 °C1018.00 hPa78.00 %19.50 °C 
16:30:0022.60 °C1018.00 hPa79.00 %18.80 °C 
16:15:0022.20 °C1018.00 hPa79.00 %18.40 °C 
16:00:0021.90 °C1018.10 hPa80.00 %18.30 °C 
15:45:0022.20 °C1018.20 hPa78.00 %18.20 °C 
15:30:0023.10 °C1018.00 hPa76.00 %18.60 °C 
15:15:0023.30 °C1017.90 hPa76.00 %18.80 °C 
15:00:0023.40 °C1018.00 hPa75.00 %18.70 °C 
14:45:0023.80 °C1018.20 hPa75.00 %19.10 °C 
14:30:0023.70 °C1018.10 hPa75.00 %19.00 °C 
14:15:0024.10 °C1018.30 hPa76.00 %19.60 °C 
14:00:0024.30 °C1018.00 hPa77.00 %20.00 °C 
13:45:0023.60 °C1018.10 hPa80.00 %19.90 °C 
13:30:0022.90 °C1018.10 hPa80.00 %19.30 °C 
13:15:0022.40 °C1018.10 hPa81.00 %19.00 °C 
13:00:0022.60 °C1018.10 hPa80.00 %19.00 °C 
12:45:0022.70 °C1017.90 hPa80.00 %19.10 °C 
12:30:0023.00 °C1017.80 hPa81.00 %19.60 °C 
12:15:0023.00 °C1017.70 hPa83.00 %20.00 °C 
12:00:0023.40 °C1017.60 hPa84.00 %20.50 °C 
11:45:0023.10 °C1017.50 hPa88.00 %21.00 °C 
11:30:0022.30 °C1017.10 hPa92.00 %20.90 °C 
11:15:0021.60 °C1017.00 hPa94.00 %20.60 °C 
11:00:0020.40 °C1017.00 hPa95.00 %19.60 °C 
10:45:0020.10 °C1016.70 hPa96.00 %19.40 °C 
10:30:0019.60 °C1016.70 hPa96.00 %18.90 °C 
10:15:0018.80 °C1016.80 hPa96.00 %18.10 °C 
10:00:0018.00 °C1016.70 hPa96.00 %17.40 °C 
09:45:0017.40 °C1016.30 hPa96.00 %16.80 °C 
09:30:0017.20 °C1016.60 hPa96.00 %16.60 °C 
09:15:0016.90 °C1016.20 hPa96.00 %16.30 °C 
09:00:0016.90 °C1016.30 hPa96.00 %16.30 °C 
08:45:0016.90 °C1016.20 hPa96.00 %16.30 °C 
08:30:0016.80 °C1016.20 hPa96.00 %16.20 °C 
08:15:0016.70 °C1016.40 hPa96.00 %16.10 °C 
08:00:0016.60 °C1016.70 hPa96.00 %16.00 °C 
07:45:0016.40 °C1016.70 hPa96.00 %15.80 °C 
07:30:0016.20 °C1016.70 hPa96.00 %15.60 °C 
07:15:0016.10 °C1016.50 hPa95.00 %15.30 °C 
07:00:0016.10 °C1016.30 hPa95.00 %15.30 °C 
06:45:0016.10 °C1016.20 hPa95.00 %15.30 °C 
06:30:0016.10 °C1016.20 hPa95.00 %15.30 °C 
06:15:0016.10 °C1016.40 hPa95.00 %15.30 °C 
06:00:0016.10 °C1016.50 hPa95.00 %15.30 °C 
05:45:0016.10 °C1016.50 hPa95.00 %15.30 °C 
05:30:0016.10 °C1016.40 hPa95.00 %15.30 °C 
05:15:0016.10 °C1016.50 hPa95.00 %15.30 °C 
05:00:0016.20 °C1016.20 hPa95.00 %15.40 °C 
04:45:0016.20 °C1016.20 hPa95.00 %15.40 °C 
04:30:0016.30 °C1016.30 hPa95.00 %15.50 °C 
04:15:0016.30 °C1016.60 hPa95.00 %15.50 °C 
04:00:0016.40 °C1016.50 hPa95.00 %15.60 °C 
03:45:0016.40 °C1016.50 hPa95.00 %15.60 °C 
03:30:0016.40 °C1016.50 hPa94.00 %15.40 °C 
03:15:0016.40 °C1016.50 hPa94.00 %15.40 °C 
03:00:0016.40 °C1016.40 hPa94.00 %15.40 °C 
02:45:0016.40 °C1016.60 hPa94.00 %15.40 °C 
02:30:0016.40 °C1016.50 hPa94.00 %15.40 °C 
02:15:0016.40 °C1016.30 hPa94.00 %15.40 °C 
02:00:0016.40 °C1016.50 hPa94.00 %15.40 °C 
01:45:0016.40 °C1016.30 hPa94.00 %15.40 °C 
01:30:0016.40 °C1016.50 hPa93.00 %15.30 °C 
01:15:0016.40 °C1016.30 hPa93.00 %15.30 °C 
01:00:0016.40 °C1016.40 hPa93.00 %15.30 °C 
00:45:0016.40 °C1016.20 hPa93.00 %15.30 °C 
00:30:0016.40 °C1016.10 hPa93.00 %15.30 °C 
00:15:0016.40 °C1016.20 hPa93.00 %15.30 °C 
00:00:0016.30 °C1016.30 hPa93.00 %15.20 °C 

Permanenter Link zu dieser Seite: Wetter im Erzgebirge am 24.07.2016
Performance-Info: Die Erstellung der Seite / Statistik(en) / Tabelle(n) erforderte 5 Datenbankserver-Abfrage(n) und dauerte 101 Millisekunden. (Dieser Messwert ist von der Gesamt-Auslastung des Servers abhängig.)
Erzgebirge - Wetter | Erzgebirge - Wetter (Mobilgeräte) | Komplette Klimadatenbank